createdAt,value
2023-01-31T00:05:11.000Z,20.4
2023-01-31T00:19:49.000Z,27.2
2023-01-31T00:34:26.000Z,21.7
2023-01-31T00:49:05.000Z,20.3
2023-01-31T01:03:43.000Z,21.7
2023-01-31T01:18:19.000Z,18.4
2023-01-31T01:32:58.000Z,20.9
2023-01-31T01:47:36.000Z,22.3
2023-01-31T02:02:13.000Z,29.1
2023-01-31T02:16:49.000Z,26.1
2023-01-31T02:31:26.000Z,29.5
2023-01-31T02:46:02.000Z,32.6
2023-01-31T03:00:40.000Z,25.6
2023-01-31T03:15:16.000Z,29.4
2023-01-31T03:29:54.000Z,22
2023-01-31T03:44:32.000Z,24
2023-01-31T03:59:09.000Z,26.6
2023-01-31T04:13:46.000Z,30.7
2023-01-31T04:28:23.000Z,28.6
2023-01-31T04:43:00.000Z,25.2
2023-01-31T04:57:35.000Z,28.8
2023-01-31T05:12:13.000Z,28.7
2023-01-31T05:26:50.000Z,34.7
2023-01-31T05:41:24.000Z,40.7
2023-01-31T05:56:00.000Z,35.3
2023-01-31T06:10:37.000Z,70.2
2023-01-31T06:25:15.000Z,67.1
2023-01-31T06:39:46.000Z,68.8
2023-01-31T06:54:24.000Z,57.5
2023-01-31T07:09:01.000Z,50.8
2023-01-31T07:23:39.000Z,40.5
2023-01-31T07:38:18.000Z,38.4
2023-01-31T07:52:57.000Z,33.4
2023-01-31T08:07:35.000Z,35
2023-01-31T08:22:11.000Z,40.8
2023-01-31T08:36:49.000Z,32.1
2023-01-31T08:51:28.000Z,27.6
2023-01-31T09:06:08.000Z,22.7
2023-01-31T09:20:45.000Z,16.7
2023-01-31T09:35:22.000Z,17.7
2023-01-31T09:50:04.000Z,19
2023-01-31T10:04:40.000Z,25.5
2023-01-31T10:19:18.000Z,26
2023-01-31T10:33:56.000Z,21.7
2023-01-31T10:48:34.000Z,25.8
2023-01-31T11:03:13.000Z,25.6
2023-01-31T11:17:50.000Z,27
2023-01-31T11:32:29.000Z,23.8
2023-01-31T11:47:03.000Z,25.9
2023-01-31T12:01:41.000Z,23.3
2023-01-31T12:16:17.000Z,26.9
2023-01-31T12:30:56.000Z,23.9
2023-01-31T12:45:34.000Z,18.9
2023-01-31T13:00:11.000Z,23.4
2023-01-31T13:14:49.000Z,26.3
2023-01-31T13:29:27.000Z,28.5
2023-01-31T13:44:05.000Z,23.4
2023-01-31T13:58:44.000Z,24.7
2023-01-31T14:13:22.000Z,20.5
2023-01-31T14:28:01.000Z,22.3
2023-01-31T14:42:39.000Z,16.3
2023-01-31T14:57:25.000Z,14.9
2023-01-31T15:11:54.000Z,13.9
2023-01-31T15:26:32.000Z,16.2
2023-01-31T15:41:10.000Z,18.1
2023-01-31T15:55:47.000Z,16.2
2023-01-31T16:10:25.000Z,12.6
2023-01-31T16:25:04.000Z,11.1
2023-01-31T16:39:41.000Z,11.5
2023-01-31T16:54:18.000Z,12.6
2023-01-31T17:08:54.000Z,11
2023-01-31T17:23:32.000Z,10.7
2023-01-31T17:38:10.000Z,10
2023-01-31T17:52:47.000Z,11.3
2023-01-31T18:07:18.000Z,15.2
2023-01-31T18:21:56.000Z,15.8
2023-01-31T18:36:31.000Z,15.1
2023-01-31T18:51:09.000Z,14.8
2023-01-31T19:05:48.000Z,13.8
2023-01-31T19:20:24.000Z,13.8
2023-01-31T19:35:02.000Z,15.4
2023-01-31T19:49:40.000Z,15.9
2023-01-31T20:04:15.000Z,14.7
2023-01-31T20:18:48.000Z,16.8
2023-01-31T20:33:23.000Z,16.8
2023-01-31T20:48:01.000Z,21.5
2023-01-31T21:02:38.000Z,21.8
2023-01-31T21:17:15.000Z,18.7
2023-01-31T21:31:51.000Z,23.4
2023-01-31T21:46:28.000Z,30
2023-01-31T22:01:05.000Z,33.5
2023-01-31T22:15:43.000Z,29.5
2023-01-31T22:30:18.000Z,38.6
2023-01-31T22:44:54.000Z,38.9
2023-01-31T22:59:33.000Z,38.9
2023-01-31T23:14:12.000Z,45.3
2023-01-31T23:28:50.000Z,53.9
2023-01-31T23:43:26.000Z,60
2023-01-31T23:58:04.000Z,62.8
